X  Zamknij Lotniskowe dane METAR     LFLC Clermont-Ferrand Auvergne Airport
Temperatura
16°C Temperatura
11°C Punkt rosy
72% Wilgotność



Wiatr
19 KM/H
12 MPH
5 M/S
10 KTS



240°
WSW
Warunki bieżące

Lekkie zachmurzenie Lekkie zachmurzenie
Ciśnienie 1004.92 (hPa) - 29.68 (inHg)
Widoczność 6.2 (mil) - 10 (km)
Lotnisko
Kod lotniska LFLC

Położenie: Clermont-Ferrand Auvergne Airport
Odległość: 100 (km)

Metar:
LFLC 280000Z AUTO 24010KT 9999 SCT031 SCT050 BKN180 16/11 Q1005 TEMPO 4000 RA

Czas: 28-09-2022 02:00 CEST